Time;durP1;ratioP1;P1;durP2;ratioP2;P2;SDS_P1;SDS_P2;PMS_P1;PMS_P2;Temp;Humidity;BMP_temperature;BMP_pressure;BME280_temperature;BME280_humidity;BME280_pressure;Samples;Min_cycle;Max_cycle;Signal;HPM_P1;HPM_P2
2023/06/12 00:01:14;;;;;;;8.57;7.90;;;13.70;99.90;;;;;;5047457;28;20465;-80
2023/06/12 00:03:43;;;;;;;8.20;7.17;;;13.70;99.90;;;;;;5047692;28;20943;-79
2023/06/12 00:06:11;;;;;;;9.80;8.80;;;13.70;99.90;;;;;;5046881;28;20468;-80
2023/06/12 00:08:42;;;;;;;7.43;6.77;;;13.70;99.90;;;;;;5041513;28;20549;-79
2023/06/12 00:11:12;;;;;;;6.63;6.03;;;13.70;99.90;;;;;;5046578;28;21024;-79
2023/06/12 00:13:40;;;;;;;6.87;6.37;;;13.70;99.90;;;;;;5047394;28;20453;-80
2023/06/12 00:16:07;;;;;;;8.03;7.30;;;13.70;99.90;;;;;;5046689;28;20940;-80
2023/06/12 00:18:34;;;;;;;7.10;6.40;;;13.60;99.90;;;;;;5047408;28;21240;-79
2023/06/12 00:21:04;;;;;;;7.47;6.77;;;13.50;99.90;;;;;;5045219;28;20464;-78
2023/06/12 00:23:31;;;;;;;6.57;5.97;;;13.50;99.90;;;;;;5046390;28;20491;-81
2023/06/12 00:25:58;;;;;;;6.93;6.33;;;13.50;99.90;;;;;;5045292;28;20481;-79
2023/06/12 00:28:24;;;;;;;7.00;6.30;;;13.60;99.90;;;;;;5047622;28;21075;-80
2023/06/12 00:30:51;;;;;;;7.00;6.30;;;13.60;99.90;;;;;;5047587;28;20449;-80
2023/06/12 00:33:18;;;;;;;6.57;5.97;;;13.50;99.90;;;;;;5047402;28;20445;-80
2023/06/12 00:35:46;;;;;;;8.57;7.67;;;13.60;99.90;;;;;;5045358;28;20959;-78
2023/06/12 00:38:15;;;;;;;7.30;6.70;;;13.60;99.90;;;;;;5047594;28;20940;-80
2023/06/12 00:40:42;;;;;;;7.70;6.90;;;13.50;99.90;;;;;;5046626;28;20526;-79
2023/06/12 00:43:09;;;;;;;9.80;8.27;;;13.30;99.90;;;;;;5047529;28;20538;-79
2023/06/12 00:45:37;;;;;;;8.73;5.60;;;13.30;99.90;;;;;;5046804;28;20450;-81
2023/06/12 00:48:05;;;;;;;7.40;6.60;;;13.30;99.90;;;;;;5043745;28;20506;-79
2023/06/12 00:50:33;;;;;;;6.33;5.77;;;13.40;99.90;;;;;;5047678;28;20912;-80
2023/06/12 00:53:00;;;;;;;8.03;7.33;;;13.30;99.90;;;;;;5043433;28;20448;-81
2023/06/12 00:55:31;;;;;;;9.13;8.33;;;13.30;99.90;;;;;;5045058;28;21017;-80
2023/06/12 00:57:58;;;;;;;7.20;6.70;;;13.10;99.90;;;;;;5046415;28;20493;-78
2023/06/12 01:00:25;;;;;;;7.23;6.73;;;13.10;99.90;;;;;;5044097;28;21065;-80
2023/06/12 01:02:58;;;;;;;7.00;6.50;;;13.00;99.90;;;;;;5047212;28;20453;-78
2023/06/12 01:05:32;;;;;;;8.07;7.47;;;13.10;99.90;;;;;;5047088;28;20461;-79
2023/06/12 01:08:09;;;;;;;8.80;6.90;;;13.00;99.90;;;;;;5044031;28;20492;-78
2023/06/12 01:10:42;;;;;;;7.93;7.37;;;13.10;99.90;;;;;;5046295;28;20437;-78
2023/06/12 01:13:11;;;;;;;7.50;6.90;;;13.00;99.90;;;;;;5046159;28;20492;-79
2023/06/12 01:15:38;;;;;;;6.43;5.80;;;13.10;99.90;;;;;;5046973;28;20507;-78
2023/06/12 01:18:06;;;;;;;6.53;5.93;;;13.00;99.90;;;;;;5045479;28;20457;-79
2023/06/12 01:20:34;;;;;;;7.50;6.90;;;12.90;99.90;;;;;;5042863;28;20461;-81
2023/06/12 01:23:09;;;;;;;7.33;6.63;;;13.10;99.90;;;;;;5039822;28;20441;-79
2023/06/12 01:26:01;;;;;;;6.07;5.57;;;13.10;99.90;;;;;;5044967;28;20547;-80
2023/06/12 01:28:56;;;;;;;6.27;5.67;;;13.10;99.90;;;;;;5046769;28;20484;-80
2023/06/12 01:31:29;;;;;;;7.83;7.10;;;12.90;99.90;;;;;;5045888;28;20507;-78
2023/06/12 01:34:03;;;;;;;6.80;6.17;;;12.80;99.90;;;;;;5037519;28;20461;-80
2023/06/12 01:36:31;;;;;;;9.07;8.13;;;12.90;99.90;;;;;;5045308;28;20452;-80
2023/06/12 01:39:04;;;;;;;7.90;7.20;;;12.90;99.90;;;;;;5038045;28;20503;-79
2023/06/12 01:41:32;;;;;;;7.70;7.10;;;12.90;99.90;;;;;;5044477;28;20872;-79
2023/06/12 01:44:07;;;;;;;8.23;7.40;;;12.80;99.90;;;;;;5038678;28;20486;-81
2023/06/12 01:46:35;;;;;;;9.57;7.53;;;12.80;99.90;;;;;;5038457;28;20440;-79
2023/06/12 01:49:04;;;;;;;8.70;7.90;;;12.70;99.90;;;;;;5044259;28;20499;-81
2023/06/12 01:51:31;;;;;;;8.97;7.73;;;12.70;99.90;;;;;;5043159;28;20454;-80
2023/06/12 01:53:58;;;;;;;12.33;7.90;;;12.80;99.90;;;;;;5048375;28;20518;-80
2023/06/12 01:56:25;;;;;;;6.80;6.30;;;12.80;99.90;;;;;;5048169;28;21013;-81
2023/06/12 01:58:52;;;;;;;8.03;7.33;;;12.80;99.90;;;;;;5049162;28;20980;-79
2023/06/12 02:01:21;;;;;;;7.87;7.17;;;12.70;99.90;;;;;;5049299;28;20877;-79
2023/06/12 02:03:48;;;;;;;8.20;7.50;;;12.70;99.90;;;;;;5049387;28;20560;-80
2023/06/12 02:06:17;;;;;;;8.07;7.27;;;12.60;99.90;;;;;;5048249;28;20510;-79
2023/06/12 02:08:44;;;;;;;8.00;6.50;;;12.60;99.90;;;;;;5049115;28;20570;-79
2023/06/12 02:11:11;;;;;;;8.07;7.30;;;12.60;99.90;;;;;;5038668;28;20450;-79
2023/06/12 02:13:38;;;;;;;8.67;6.50;;;12.50;99.90;;;;;;5043463;28;20484;-80
2023/06/12 02:16:07;;;;;;;7.67;6.87;;;12.40;99.90;;;;;;5049170;28;20804;-79
2023/06/12 02:18:34;;;;;;;6.10;5.70;;;12.30;99.90;;;;;;5048792;28;20522;-80
2023/06/12 02:21:01;;;;;;;7.70;7.10;;;12.30;99.90;;;;;;5048252;28;21050;-78
2023/06/12 02:23:29;;;;;;;9.00;6.77;;;12.20;99.90;;;;;;5047240;28;20491;-81
2023/06/12 02:25:56;;;;;;;7.80;7.17;;;12.20;99.90;;;;;;5047561;28;20579;-79
2023/06/12 02:28:23;;;;;;;7.57;6.90;;;12.20;99.90;;;;;;5041236;28;20517;-81
2023/06/12 02:30:50;;;;;;;9.00;8.10;;;12.20;99.90;;;;;;5048555;28;21178;-80
2023/06/12 02:33:17;;;;;;;8.73;7.93;;;12.30;99.90;;;;;;5049429;28;20484;-80
2023/06/12 02:35:44;;;;;;;10.53;9.63;;;12.30;99.90;;;;;;5047433;28;20457;-80
2023/06/12 02:38:11;;;;;;;8.40;7.20;;;12.40;99.90;;;;;;5049781;28;20530;-79
2023/06/12 02:40:39;;;;;;;7.63;7.00;;;12.20;99.90;;;;;;5047795;28;20497;-80
2023/06/12 02:43:06;;;;;;;8.83;7.73;;;12.20;99.90;;;;;;5048425;28;20469;-79
2023/06/12 02:45:33;;;;;;;8.93;8.10;;;12.20;99.90;;;;;;5047552;28;20848;-80
2023/06/12 02:48:00;;;;;;;8.80;7.83;;;12.30;99.90;;;;;;5048539;28;20582;-79
2023/06/12 02:50:27;;;;;;;8.70;7.67;;;12.10;99.90;;;;;;5047867;28;20932;-78
2023/06/12 02:52:54;;;;;;;8.57;7.77;;;12.10;99.90;;;;;;5048571;28;20824;-81
2023/06/12 02:55:21;;;;;;;7.60;7.00;;;12.00;99.90;;;;;;5048925;28;20449;-81
2023/06/12 02:57:49;;;;;;;8.13;7.23;;;12.00;99.90;;;;;;5039259;28;20489;-80
2023/06/12 03:00:17;;;;;;;7.53;6.93;;;12.00;99.90;;;;;;5047557;28;20489;-79
2023/06/12 03:02:47;;;;;;;8.60;7.80;;;12.00;99.90;;;;;;5034568;28;20493;-81
2023/06/12 03:05:14;;;;;;;9.00;8.10;;;12.00;99.90;;;;;;5047998;28;20468;-81
2023/06/12 03:07:42;;;;;;;10.37;9.27;;;12.20;99.90;;;;;;5046758;28;21143;-80
2023/06/12 03:10:10;;;;;;;11.00;9.90;;;12.20;99.90;;;;;;5048417;28;20476;-79
2023/06/12 03:12:37;;;;;;;9.30;8.40;;;12.20;99.90;;;;;;5041611;28;20497;-79
2023/06/12 03:15:07;;;;;;;12.50;10.73;;;12.30;99.90;;;;;;5046853;28;20476;-82
2023/06/12 03:17:34;;;;;;;10.10;9.10;;;12.40;99.90;;;;;;5048090;28;20514;-78
2023/06/12 03:20:03;;;;;;;11.40;10.30;;;12.40;99.90;;;;;;5047509;28;20473;-79
2023/06/12 03:22:30;;;;;;;11.50;9.03;;;12.30;99.90;;;;;;5046565;28;20437;-79
2023/06/12 03:24:57;;;;;;;15.17;9.87;;;12.30;99.90;;;;;;5043934;28;20944;-82
2023/06/12 03:27:25;;;;;;;12.20;10.73;;;12.50;99.90;;;;;;5047833;28;20445;-82
2023/06/12 03:29:52;;;;;;;10.20;8.57;;;12.50;99.90;;;;;;5040459;28;21036;-82
2023/06/12 03:32:20;;;;;;;12.07;9.67;;;12.70;99.90;;;;;;5047467;28;20492;-83
2023/06/12 03:34:47;;;;;;;10.97;9.97;;;12.70;99.90;;;;;;5044551;28;20449;-81
2023/06/12 03:37:14;;;;;;;10.07;9.17;;;12.80;99.90;;;;;;5046644;28;20465;-82
2023/06/12 03:39:41;;;;;;;9.73;8.90;;;12.80;99.90;;;;;;5044713;28;20490;-81
2023/06/12 03:42:10;;;;;;;9.97;9.03;;;12.90;99.90;;;;;;5047597;28;20548;-83
2023/06/12 03:44:37;;;;;;;11.07;9.30;;;12.90;99.90;;;;;;5037742;28;20477;-82
2023/06/12 03:47:04;;;;;;;10.87;9.87;;;13.10;99.90;;;;;;5046264;28;20481;-83
2023/06/12 03:49:33;;;;;;;10.77;9.77;;;13.10;99.90;;;;;;5041371;28;20521;-82
2023/06/12 03:52:00;;;;;;;11.47;10.27;;;13.00;99.90;;;;;;5047792;28;20527;-83
2023/06/12 03:54:27;;;;;;;11.10;10.10;;;13.10;99.90;;;;;;5047245;28;20531;-82
2023/06/12 03:56:53;;;;;;;11.20;10.00;;;13.10;99.90;;;;;;5046113;28;20489;-82
2023/06/12 03:59:20;;;;;;;11.87;10.77;;;13.10;99.90;;;;;;5043913;28;21437;-81
2023/06/12 04:01:48;;;;;;;11.10;10.10;;;13.10;99.90;;;;;;5045843;28;20495;-83
2023/06/12 04:04:15;;;;;;;12.20;11.00;;;13.10;99.90;;;;;;5046699;28;20544;-82
2023/06/12 04:06:44;;;;;;;10.80;9.80;;;13.20;99.90;;;;;;5046883;28;20476;-83
2023/06/12 04:09:12;;;;;;;8.90;8.20;;;13.30;99.90;;;;;;5042845;28;20593;-82
2023/06/12 04:11:39;;;;;;;10.73;9.63;;;13.40;99.90;;;;;;5046974;28;20471;-83
2023/06/12 04:14:07;;;;;;;9.93;9.03;;;13.40;99.90;;;;;;5045907;28;20469;-78
2023/06/12 04:16:34;;;;;;;11.90;10.27;;;13.50;99.90;;;;;;5046254;28;20571;-79
2023/06/12 04:19:03;;;;;;;13.30;10.90;;;13.50;99.90;;;;;;5047146;28;20445;-79
2023/06/12 04:21:32;;;;;;;11.57;10.33;;;13.60;99.90;;;;;;5043867;28;20462;-82
2023/06/12 04:24:02;;;;;;;10.53;9.43;;;13.60;99.90;;;;;;5046655;28;20813;-82
2023/06/12 04:26:29;;;;;;;10.73;9.73;;;13.70;99.90;;;;;;5041287;28;20480;-80
2023/06/12 04:28:57;;;;;;;15.43;10.33;;;13.90;99.90;;;;;;5046542;28;20495;-80
2023/06/12 04:31:26;;;;;;;10.93;10.00;;;14.00;99.90;;;;;;5043243;28;20446;-79
2023/06/12 04:33:54;;;;;;;10.90;9.93;;;14.20;99.90;;;;;;5044662;28;20522;-81
2023/06/12 04:36:22;;;;;;;10.47;9.37;;;14.30;99.90;;;;;;5040002;28;20512;-80
2023/06/12 04:38:51;;;;;;;11.33;10.23;;;14.30;99.90;;;;;;5045160;28;20869;-80
2023/06/12 04:41:20;;;;;;;11.63;10.63;;;14.20;99.90;;;;;;5045890;28;20548;-81
2023/06/12 04:43:48;;;;;;;10.80;8.70;;;14.10;99.90;;;;;;5042313;28;20980;-79
2023/06/12 04:46:17;;;;;;;10.90;9.90;;;14.30;99.90;;;;;;5045314;28;20449;-82
2023/06/12 04:48:45;;;;;;;9.90;9.00;;;14.40;99.90;;;;;;5046013;28;20839;-82
2023/06/12 04:51:13;;;;;;;9.90;9.00;;;14.40;99.90;;;;;;5040451;28;20544;-80
2023/06/12 04:53:43;;;;;;;11.37;10.37;;;14.40;99.90;;;;;;5040246;28;20458;-80
2023/06/12 04:56:12;;;;;;;10.17;9.37;;;14.40;99.90;;;;;;5038340;28;20480;-81
2023/06/12 04:58:42;;;;;;;9.20;8.40;;;14.40;99.90;;;;;;5038148;28;20885;-81
2023/06/12 05:01:10;;;;;;;9.43;8.47;;;14.60;99.90;;;;;;5045353;28;20488;-82
2023/06/12 05:03:38;;;;;;;9.13;8.33;;;14.60;99.90;;;;;;5036986;28;20445;-80
2023/06/12 05:06:06;;;;;;;10.80;8.80;;;14.70;99.90;;;;;;5044392;28;21018;-80
2023/06/12 05:08:33;;;;;;;10.40;9.37;;;14.70;99.90;;;;;;5041693;28;20520;-84
2023/06/12 05:11:00;;;;;;;8.27;7.37;;;14.90;99.90;;;;;;5046043;28;20480;-81
2023/06/12 05:13:27;;;;;;;11.90;8.00;;;15.00;99.90;;;;;;5046449;28;20437;-80
2023/06/12 05:15:55;;;;;;;8.87;7.53;;;15.00;99.90;;;;;;5046843;28;20472;-80
2023/06/12 05:18:22;;;;;;;8.60;7.80;;;15.10;99.90;;;;;;5041170;28;20908;-79
2023/06/12 05:20:49;;;;;;;9.00;8.30;;;15.20;99.90;;;;;;5043013;28;20473;-81
2023/06/12 05:23:16;;;;;;;8.00;7.20;;;15.30;99.90;;;;;;5046008;28;20445;-80
2023/06/12 05:25:43;;;;;;;8.80;8.10;;;15.30;99.90;;;;;;5046126;28;20456;-81
2023/06/12 05:28:11;;;;;;;8.80;7.87;;;15.40;99.90;;;;;;5047304;28;22381;-83
2023/06/12 05:30:38;;;;;;;7.50;6.63;;;15.50;99.90;;;;;;5050674;28;20441;-85
2023/06/12 05:33:06;;;;;;;8.20;7.40;;;15.50;99.90;;;;;;5044699;28;20519;-81
2023/06/12 05:35:34;;;;;;;10.13;7.40;;;15.60;99.90;;;;;;5049193;28;20494;-81
2023/06/12 05:38:01;;;;;;;7.87;7.17;;;15.80;99.90;;;;;;5050561;28;20445;-84
2023/06/12 05:40:28;;;;;;;7.60;6.90;;;16.00;99.90;;;;;;5041560;28;20465;-80
2023/06/12 05:42:59;;;;;;;6.17;5.57;;;15.90;99.90;;;;;;5046633;28;20449;-80
2023/06/12 05:45:26;;;;;;;7.67;6.97;;;16.10;99.90;;;;;;5043872;28;20453;-82
2023/06/12 05:47:52;;;;;;;5.20;4.80;;;16.30;99.90;;;;;;5049377;28;20441;-82
2023/06/12 05:50:21;;;;;;;6.43;5.83;;;16.60;99.90;;;;;;5041365;28;20542;-81
2023/06/12 05:52:48;;;;;;;6.37;5.97;;;16.60;99.90;;;;;;5050206;28;20499;-81
2023/06/12 05:55:15;;;;;;;8.50;5.20;;;16.70;99.90;;;;;;5044400;28;20453;-80
2023/06/12 05:57:42;;;;;;;5.80;5.30;;;16.70;99.90;;;;;;5048203;28;20469;-81
2023/06/12 06:00:10;;;;;;;5.23;4.73;;;16.50;99.90;;;;;;5047262;28;20538;-82
2023/06/12 06:02:38;;;;;;;6.90;4.80;;;16.60;99.90;;;;;;5042398;28;20501;-83
2023/06/12 06:05:09;;;;;;;5.57;5.07;;;16.70;99.90;;;;;;5049119;28;20472;-81
2023/06/12 06:07:38;;;;;;;5.87;5.17;;;16.80;99.90;;;;;;5041361;28;20460;-82
2023/06/12 06:10:06;;;;;;;4.67;4.13;;;16.90;99.90;;;;;;5048599;28;20510;-79
2023/06/12 06:12:33;;;;;;;9.83;4.00;;;16.80;99.90;;;;;;5048748;28;20534;-81
2023/06/12 06:15:00;;;;;;;4.50;3.73;;;16.90;99.90;;;;;;5045767;28;20954;-81
2023/06/12 06:17:27;;;;;;;6.60;5.80;;;16.90;99.90;;;;;;5046461;28;21097;-83
2023/06/12 06:19:54;;;;;;;3.90;3.60;;;17.10;99.90;;;;;;5047200;28;20461;-81
2023/06/12 06:22:24;;;;;;;5.23;4.70;;;17.30;99.90;;;;;;5048771;28;20960;-85
2023/06/12 06:24:52;;;;;;;4.57;4.13;;;17.40;99.90;;;;;;5046038;28;20469;-81
2023/06/12 06:27:19;;;;;;;4.57;3.80;;;17.40;99.90;;;;;;5048008;28;20446;-81
2023/06/12 06:29:46;;;;;;;4.87;3.63;;;17.50;99.90;;;;;;5047612;28;20493;-81
2023/06/12 06:32:13;;;;;;;4.07;3.77;;;17.20;99.90;;;;;;5045939;28;20481;-83
2023/06/12 06:34:40;;;;;;;4.60;4.00;;;17.20;99.90;;;;;;5047794;28;20469;-81
2023/06/12 06:37:07;;;;;;;4.43;3.60;;;17.40;99.90;;;;;;5045780;28;20507;-81
2023/06/12 06:39:34;;;;;;;4.47;3.90;;;17.50;99.90;;;;;;5038376;28;20465;-81
2023/06/12 06:42:03;;;;;;;3.27;2.93;;;17.60;99.90;;;;;;5046277;28;20563;-81
2023/06/12 06:44:30;;;;;;;5.67;3.53;;;17.70;99.90;;;;;;5047982;28;20438;-83
2023/06/12 06:46:57;;;;;;;4.20;3.90;;;18.00;99.90;;;;;;5039813;28;21193;-81
2023/06/12 06:49:24;;;;;;;5.73;2.83;;;18.30;99.90;;;;;;5047359;28;20510;-84
2023/06/12 06:51:51;;;;;;;4.70;3.87;;;18.10;99.90;;;;;;5043384;28;20498;-80
2023/06/12 06:54:18;;;;;;;6.20;4.33;;;18.00;99.90;;;;;;5043874;28;20454;-84
2023/06/12 06:56:45;;;;;;;4.70;3.43;;;18.10;99.90;;;;;;5047555;28;20536;-81
2023/06/12 06:59:13;;;;;;;4.20;3.90;;;18.40;99.90;;;;;;5042288;28;20526;-81
2023/06/12 07:01:40;;;;;;;4.10;3.80;;;18.50;99.90;;;;;;5044991;28;20497;-82
2023/06/12 07:04:07;;;;;;;5.00;2.90;;;18.70;99.90;;;;;;5046195;28;20476;-81
2023/06/12 07:06:34;;;;;;;4.80;2.60;;;18.70;99.90;;;;;;5048155;28;20441;-81
2023/06/12 07:09:02;;;;;;;3.67;2.67;;;18.50;99.90;;;;;;5047651;28;20605;-81
2023/06/12 07:11:29;;;;;;;4.83;3.57;;;18.60;99.90;;;;;;5041376;28;20461;-83
2023/06/12 07:13:56;;;;;;;2.03;1.90;;;18.70;99.80;;;;;;5047618;28;20692;-83
2023/06/12 07:16:24;;;;;;;3.60;2.00;;;18.80;99.60;;;;;;5047288;28;20477;-84
2023/06/12 07:18:51;;;;;;;3.47;2.53;;;19.00;99.90;;;;;;5046613;28;20494;-82
2023/06/12 07:21:18;;;;;;;3.20;3.00;;;19.10;97.90;;;;;;5048559;28;20476;-81
2023/06/12 07:23:45;;;;;;;2.50;2.30;;;19.10;98.40;;;;;;5048113;28;20447;-83
2023/06/12 07:26:12;;;;;;;3.30;2.40;;;19.10;97.30;;;;;;5048144;28;20638;-81
2023/06/12 07:28:39;;;;;;;4.70;2.77;;;19.20;97.10;;;;;;5040197;28;20484;-82
2023/06/12 07:31:06;;;;;;;4.03;2.53;;;19.00;97.70;;;;;;5048800;28;20546;-82
2023/06/12 07:33:35;;;;;;;2.87;2.57;;;19.40;98.00;;;;;;5045320;28;20454;-81
2023/06/12 07:36:02;;;;;;;2.50;2.30;;;19.30;96.80;;;;;;5039913;28;20443;-82
2023/06/12 07:38:29;;;;;;;2.20;2.10;;;19.40;97.80;;;;;;5045997;28;20461;-81
2023/06/12 07:40:56;;;;;;;3.10;2.57;;;19.60;98.40;;;;;;5042893;28;20905;-81
2023/06/12 07:43:23;;;;;;;2.23;1.87;;;19.80;94.50;;;;;;5047181;28;20488;-81
2023/06/12 07:45:50;;;;;;;2.23;1.90;;;19.60;93.50;;;;;;5040309;28;21183;-80
2023/06/12 07:48:17;;;;;;;2.33;1.63;;;19.70;91.20;;;;;;5044824;28;20438;-81
2023/06/12 07:50:46;;;;;;;2.23;2.13;;;19.50;91.90;;;;;;5039297;28;20547;-82
2023/06/12 07:53:13;;;;;;;1.40;1.30;;;19.80;93.20;;;;;;5047111;28;20457;-82
2023/06/12 07:55:39;;;;;;;2.23;2.00;;;19.80;92.80;;;;;;5047710;28;20878;-81
2023/06/12 07:58:08;;;;;;;4.70;1.83;;;19.60;90.80;;;;;;5044732;28;20514;-81
2023/06/12 08:00:35;;;;;;;2.40;1.83;;;19.60;91.50;;;;;;5046350;28;21035;-82
2023/06/12 08:03:03;;;;;;;2.37;2.03;;;19.60;90.10;;;;;;5045700;28;20453;-83
2023/06/12 08:05:30;;;;;;;4.93;2.53;;;19.80;90.80;;;;;;5046673;28;20444;-80
2023/06/12 08:07:59;;;;;;;6.27;4.00;;;19.80;86.60;;;;;;5046939;28;20473;-80
2023/06/12 08:10:26;;;;;;;5.57;2.70;;;19.70;87.40;;;;;;5046113;28;20476;-80
2023/06/12 08:12:53;;;;;;;6.30;3.40;;;20.00;88.00;;;;;;5042244;28;20444;-81
2023/06/12 08:15:21;;;;;;;12.43;6.00;;;20.10;87.70;;;;;;5045783;28;20491;-80
2023/06/12 08:17:48;;;;;;;4.87;3.13;;;20.20;83.10;;;;;;5038495;28;20453;-81
2023/06/12 08:20:17;;;;;;;3.23;1.90;;;20.40;85.30;;;;;;5041806;28;20497;-80
2023/06/12 08:22:44;;;;;;;3.10;2.73;;;20.60;84.70;;;;;;5046387;28;20467;-85
2023/06/12 08:25:12;;;;;;;4.73;2.30;;;20.60;89.70;;;;;;5045759;28;20448;-80
2023/06/12 08:27:39;;;;;;;5.63;3.67;;;20.70;87.60;;;;;;5034851;28;20465;-80
2023/06/12 08:30:08;;;;;;;17.53;8.90;;;20.80;87.50;;;;;;5046316;28;20601;-80
2023/06/12 08:32:35;;;;;;;5.23;2.97;;;20.80;84.70;;;;;;5047350;28;20469;-81
2023/06/12 08:35:04;;;;;;;5.93;2.70;;;20.90;81.40;;;;;;5043136;28;20464;-81
2023/06/12 08:37:32;;;;;;;13.50;4.93;;;20.80;77.70;;;;;;5047155;28;20981;-82
2023/06/12 08:39:59;;;;;;;2.20;2.00;;;20.70;81.90;;;;;;5045773;28;20994;-81
2023/06/12 08:42:28;;;;;;;2.90;1.60;;;20.80;83.70;;;;;;5046839;28;20437;-80
2023/06/12 08:45:03;;;;;;;3.60;2.50;;;20.90;86.30;;;;;;5045521;28;21232;-82
2023/06/12 08:47:33;;;;;;;2.20;2.00;;;21.10;84.50;;;;;;5046506;28;20536;-81
2023/06/12 08:50:00;;;;;;;1.63;1.53;;;21.20;89.80;;;;;;5045891;28;20476;-80
2023/06/12 08:52:28;;;;;;;2.30;1.83;;;21.40;84.90;;;;;;5045369;28;20436;-80
2023/06/12 08:54:57;;;;;;;3.60;2.10;;;21.60;87.40;;;;;;5042899;28;20488;-80
2023/06/12 08:57:24;;;;;;;2.20;1.93;;;21.50;85.60;;;;;;5046041;28;20455;-81
2023/06/12 08:59:54;;;;;;;2.53;1.63;;;21.90;86.30;;;;;;5043075;28;20528;-83
2023/06/12 09:02:24;;;;;;;1.53;1.43;;;21.80;80.40;;;;;;5046640;28;20481;-80
2023/06/12 09:04:57;;;;;;;1.90;1.70;;;21.80;79.10;;;;;;5046583;28;20468;-81
2023/06/12 09:07:26;;;;;;;5.80;2.30;;;21.80;80.00;;;;;;5044942;28;20497;-80
2023/06/12 09:09:52;;;;;;;1.93;1.20;;;21.90;77.00;;;;;;5046685;28;21177;-81
2023/06/12 09:12:19;;;;;;;1.50;1.40;;;21.70;76.20;;;;;;5040576;28;20473;-81
2023/06/12 09:14:48;;;;;;;2.27;1.40;;;21.80;77.80;;;;;;5042472;28;20874;-81
2023/06/12 09:17:16;;;;;;;4.97;1.83;;;21.90;73.00;;;;;;5046206;28;20452;-81
2023/06/12 09:19:45;;;;;;;2.07;1.97;;;22.00;72.00;;;;;;5042930;28;20465;-82
2023/06/12 09:22:12;;;;;;;1.50;1.40;;;21.80;74.10;;;;;;5046416;28;20526;-81
2023/06/12 09:24:40;;;;;;;2.30;1.63;;;21.80;76.60;;;;;;5045597;28;20507;-83
2023/06/12 09:27:08;;;;;;;3.00;1.60;;;22.00;75.80;;;;;;5040974;28;20449;-81
2023/06/12 09:29:36;;;;;;;2.20;2.00;;;22.10;75.10;;;;;;5046507;28;20485;-83
2023/06/12 09:32:04;;;;;;;2.10;1.90;;;22.30;76.40;;;;;;5042691;28;20473;-81
2023/06/12 09:34:34;;;;;;;2.40;1.70;;;22.30;73.30;;;;;;5046962;28;20520;-81
2023/06/12 09:37:03;;;;;;;1.90;1.80;;;22.40;73.80;;;;;;5044573;28;21115;-80
2023/06/12 09:39:31;;;;;;;2.40;1.80;;;22.60;74.30;;;;;;5045891;28;20437;-78
2023/06/12 09:42:00;;;;;;;2.23;2.03;;;22.60;73.90;;;;;;5033367;28;20481;-79
2023/06/12 09:44:29;;;;;;;5.10;3.27;;;22.70;71.60;;;;;;5032782;28;20434;-79
2023/06/12 09:47:00;;;;;;;1.97;1.73;;;22.80;74.10;;;;;;5042782;28;20789;-79
2023/06/12 09:49:26;;;;;;;1.63;1.40;;;22.30;70.90;;;;;;5041544;28;20480;-79
2023/06/12 09:51:55;;;;;;;1.97;1.87;;;22.50;71.00;;;;;;5044692;28;20975;-81
2023/06/12 09:54:24;;;;;;;2.57;2.00;;;22.80;73.60;;;;;;5046103;28;21226;-79
2023/06/12 09:56:53;;;;;;;2.13;1.10;;;22.80;71.40;;;;;;5044241;28;20493;-79
2023/06/12 09:59:22;;;;;;;1.70;1.57;;;23.00;66.20;;;;;;5043841;28;20545;-81
2023/06/12 10:01:51;;;;;;;2.77;1.60;;;23.20;69.90;;;;;;5046135;28;20515;-80
2023/06/12 10:04:27;;;;;;;3.60;3.30;;;23.20;68.40;;;;;;5045540;28;21028;-79
2023/06/12 10:07:02;;;;;;;2.20;2.00;;;23.10;65.50;;;;;;5045522;28;20448;-78
2023/06/12 10:09:30;;;;;;;1.70;1.60;;;22.70;68.00;;;;;;5043952;28;20492;-80
2023/06/12 10:11:59;;;;;;;2.07;1.97;;;22.70;70.40;;;;;;5045419;28;20471;-79
2023/06/12 10:14:26;;;;;;;1.50;1.40;;;23.30;70.40;;;;;;5047116;28;20464;-82
2023/06/12 10:16:55;;;;;;;1.60;1.50;;;22.20;63.80;;;;;;5049137;28;20912;-79
2023/06/12 10:19:25;;;;;;;3.00;2.40;;;22.50;67.90;;;;;;5048438;28;21119;-80
2023/06/12 10:21:55;;;;;;;2.70;1.73;;;22.40;60.50;;;;;;5049344;28;20452;-82
2023/06/12 10:24:23;;;;;;;3.43;1.77;;;22.90;68.00;;;;;;5046009;28;20469;-79
2023/06/12 10:26:53;;;;;;;2.30;2.03;;;22.50;65.70;;;;;;5045002;28;20499;-79
2023/06/12 10:29:26;;;;;;;1.90;1.80;;;22.60;60.30;;;;;;5039472;28;20477;-82
2023/06/12 10:31:53;;;;;;;1.63;1.53;;;22.80;68.40;;;;;;5045787;28;20488;-79
2023/06/12 10:34:23;;;;;;;1.40;1.23;;;22.80;62.50;;;;;;5039833;28;20524;-80
2023/06/12 10:36:49;;;;;;;2.47;2.27;;;23.00;64.00;;;;;;5043666;28;20522;-79
2023/06/12 10:39:23;;;;;;;1.83;1.63;;;23.20;60.70;;;;;;5049423;28;20486;-79
2023/06/12 10:42:00;;;;;;;2.60;1.73;;;23.20;65.50;;;;;;5040254;28;20478;-82
2023/06/12 10:44:41;;;;;;;5.30;2.50;;;22.90;59.80;;;;;;5048939;28;20465;-79
2023/06/12 10:47:18;;;;;;;1.73;1.63;;;22.80;60.90;;;;;;5046443;28;20448;-79
2023/06/12 10:50:00;;;;;;;2.27;2.07;;;22.90;58.40;;;;;;5046357;28;20488;-81
2023/06/12 10:52:27;;;;;;;1.70;1.57;;;23.20;62.40;;;;;;5043709;28;20943;-82
2023/06/12 10:55:22;;;;;;;1.57;1.47;;;23.20;59.60;;;;;;5048044;28;20441;-81
2023/06/12 10:57:51;;;;;;;2.57;2.37;;;23.00;55.50;;;;;;5044139;28;20476;-80
2023/06/12 11:00:19;;;;;;;3.17;1.57;;;22.30;56.90;;;;;;5046007;28;20453;-81
2023/06/12 11:02:47;;;;;;;1.77;1.67;;;22.30;61.00;;;;;;5041124;28;20497;-80
2023/06/12 11:05:19;;;;;;;2.37;1.80;;;22.60;57.80;;;;;;5048356;28;20445;-84
2023/06/12 11:07:48;;;;;;;1.60;1.50;;;23.10;59.20;;;;;;5038407;28;20453;-78
2023/06/12 11:10:16;;;;;;;2.90;1.90;;;23.80;58.90;;;;;;5048975;28;20495;-82
2023/06/12 11:12:53;;;;;;;1.57;1.47;;;23.80;61.00;;;;;;5047040;28;20462;-78
2023/06/12 11:15:22;;;;;;;2.00;1.77;;;23.40;62.80;;;;;;5045298;28;20465;-79
2023/06/12 11:17:49;;;;;;;1.73;1.63;;;23.90;58.10;;;;;;5040505;28;20443;-78
2023/06/12 11:20:18;;;;;;;1.40;1.30;;;23.60;54.40;;;;;;5047312;28;20547;-79
2023/06/12 11:22:46;;;;;;;1.33;1.23;;;24.30;58.90;;;;;;5043995;28;20657;-78
2023/06/12 11:25:15;;;;;;;2.40;1.70;;;23.70;55.80;;;;;;5047454;28;20519;-79
2023/06/12 11:27:41;;;;;;;2.37;2.17;;;23.80;60.40;;;;;;5047933;28;20540;-80
2023/06/12 11:30:14;;;;;;;1.70;1.60;;;23.60;55.60;;;;;;5046619;28;20516;-79
2023/06/12 11:32:43;;;;;;;5.17;2.30;;;23.30;55.20;;;;;;5047696;28;20499;-78
2023/06/12 11:35:11;;;;;;;2.13;1.83;;;23.20;61.70;;;;;;5047810;28;20792;-82
2023/06/12 11:37:39;;;;;;;3.00;2.07;;;23.50;63.70;;;;;;5046996;28;20963;-80
2023/06/12 11:40:10;;;;;;;1.90;1.67;;;23.00;58.50;;;;;;5047429;28;20469;-80
2023/06/12 11:42:38;;;;;;;1.57;1.47;;;23.20;59.10;;;;;;5047091;28;20526;-81
2023/06/12 11:45:08;;;;;;;3.20;2.37;;;23.30;60.60;;;;;;5045921;28;20516;-81
2023/06/12 11:47:38;;;;;;;1.97;1.77;;;24.00;62.60;;;;;;5039898;28;20478;-85
2023/06/12 11:50:07;;;;;;;3.70;1.87;;;24.80;62.00;;;;;;5047793;28;20477;-80
2023/06/12 11:52:36;;;;;;;1.50;1.40;;;25.10;57.80;;;;;;5043911;28;20548;-80
2023/06/12 11:55:06;;;;;;;1.93;1.83;;;24.60;60.80;;;;;;5045253;28;20447;-78
2023/06/12 11:57:33;;;;;;;2.80;2.07;;;24.60;58.60;;;;;;5044949;28;20487;-79
2023/06/12 12:00:07;;;;;;;2.43;2.23;;;24.70;62.60;;;;;;5044238;28;20465;-80
2023/06/12 12:02:39;;;;;;;1.60;1.50;;;24.40;58.50;;;;;;5046909;28;20474;-80
2023/06/12 12:05:09;;;;;;;1.97;1.77;;;24.10;57.40;;;;;;5042934;28;20446;-81
2023/06/12 12:07:38;;;;;;;2.20;2.00;;;24.30;53.80;;;;;;5046444;28;20437;-80
2023/06/12 12:10:10;;;;;;;1.70;1.57;;;24.20;56.20;;;;;;5046877;28;20442;-78
2023/06/12 12:12:44;;;;;;;2.70;1.70;;;24.40;59.10;;;;;;5038204;28;20499;-80
2023/06/12 12:15:12;;;;;;;1.87;1.77;;;25.30;59.50;;;;;;5044928;28;20792;-81
2023/06/12 12:17:42;;;;;;;2.27;2.07;;;25.80;57.50;;;;;;5046462;28;20588;-81
2023/06/12 12:20:15;;;;;;;2.00;1.90;;;25.30;58.80;;;;;;5045152;28;20475;-82
2023/06/12 12:22:44;;;;;;;5.20;2.40;;;23.70;59.70;;;;;;5047194;28;20440;-81
2023/06/12 12:25:18;;;;;;;5.20;1.80;;;23.70;65.50;;;;;;5045081;28;20462;-80
2023/06/12 12:27:46;;;;;;;2.23;2.03;;;24.10;69.20;;;;;;5041635;28;20445;-79
2023/06/12 12:30:17;;;;;;;2.20;2.10;;;23.90;63.70;;;;;;5039906;28;20795;-80
2023/06/12 12:32:48;;;;;;;3.47;3.03;;;23.70;62.40;;;;;;5043564;28;20474;-82
2023/06/12 12:35:15;;;;;;;3.27;2.53;;;23.70;60.60;;;;;;5044195;28;20497;-79
2023/06/12 12:37:43;;;;;;;3.13;1.90;;;23.70;63.90;;;;;;5046517;28;20490;-79
2023/06/12 12:40:11;;;;;;;2.60;2.40;;;23.80;60.90;;;;;;5044831;28;20470;-79
2023/06/12 12:42:39;;;;;;;4.53;2.03;;;24.40;65.60;;;;;;5046128;28;20519;-80
2023/06/12 12:45:07;;;;;;;4.50;1.80;;;24.80;60.20;;;;;;5043655;28;20818;-79
2023/06/12 12:47:35;;;;;;;2.47;2.27;;;23.90;56.60;;;;;;5045944;28;20473;-81
2023/06/12 12:50:05;;;;;;;3.47;2.37;;;23.30;56.80;;;;;;5045373;28;20440;-79
2023/06/12 12:52:32;;;;;;;2.13;1.93;;;22.90;57.10;;;;;;5046558;28;20520;-79